Ocosta, Washington
Current Conditions -  °F | °C
As of 6:53 AM on Saturday 25 Oct 2014 (Local Time) from KHQM Reporting Station
Light Rain Light Rain  
Wind Chill: 51°   Ceiling: 7500
Heat Index: 51°   Visibility: 5mi
Dew Point: 50°   Wind: 15mph
Humidity: 96%   Direction: 50°NE
Pressure: 29.48"   Gusts: NA
Location:  47.1445°N, 123.771°W
Report Text: KHQM 251353Z AUTO 05013KT 5SM -RA BR OVC075 11/10 A2948 RMK AO2 PRESFR SLP986 P0010 T01060100
Loading
Personal Weather Stations






























Interactive Weather Map
Tropical Storm Tracking
New forecast layout! Learn more

10-Day Weather Forecast

Advertisements
Track Severe Weather on mobile